createdAt,value
2022-11-28T00:01:47.173Z,9.00
2022-11-28T00:04:14.549Z,8.95
2022-11-28T00:06:46.049Z,9.32
2022-11-28T00:09:15.415Z,9.07
2022-11-28T00:11:45.029Z,10.10
2022-11-28T00:14:12.482Z,9.27
2022-11-28T00:16:39.986Z,10.18
2022-11-28T00:19:08.200Z,9.80
2022-11-28T00:21:35.593Z,9.85
2022-11-28T00:24:02.461Z,9.68
2022-11-28T00:26:40.088Z,10.07
2022-11-28T00:29:07.936Z,9.48
2022-11-28T00:31:42.511Z,9.52
2022-11-28T00:34:12.310Z,8.93
2022-11-28T00:36:39.407Z,10.30
2022-11-28T00:39:07.104Z,10.40
2022-11-28T00:41:35.289Z,10.32
2022-11-28T00:44:02.310Z,10.52
2022-11-28T00:46:30.539Z,10.60
2022-11-28T00:48:58.793Z,10.90
2022-11-28T00:51:32.032Z,10.90
2022-11-28T00:54:02.835Z,10.75
2022-11-28T00:56:40.754Z,10.38
2022-11-28T00:59:07.583Z,10.13
2022-11-28T01:01:44.005Z,10.38
2022-11-28T01:04:14.677Z,10.43
2022-11-28T01:06:45.702Z,11.43
2022-11-28T01:09:22.006Z,11.25
2022-11-28T01:11:51.674Z,11.07
2022-11-28T01:14:25.007Z,12.10
2022-11-28T01:16:52.412Z,11.00
2022-11-28T01:19:20.002Z,10.73
2022-11-28T01:21:47.906Z,11.05
2022-11-28T01:24:14.875Z,10.82
2022-11-28T01:26:42.752Z,11.07
2022-11-28T01:29:10.418Z,10.93
2022-11-28T01:31:37.957Z,11.48
2022-11-28T01:34:04.762Z,11.07
2022-11-28T01:36:31.952Z,10.80
2022-11-28T01:38:58.661Z,11.23
2022-11-28T01:41:27.932Z,11.15
2022-11-28T01:44:14.106Z,10.02
2022-11-28T01:46:41.481Z,10.23
2022-11-28T01:49:17.389Z,10.43
2022-11-28T01:51:53.527Z,11.18
2022-11-28T01:54:25.310Z,10.57
2022-11-28T01:57:07.969Z,9.88
2022-11-28T01:59:42.090Z,9.82
2022-11-28T02:02:17.898Z,9.85
2022-11-28T02:04:47.622Z,10.18
2022-11-28T02:07:14.545Z,9.73
2022-11-28T02:09:41.305Z,10.60
2022-11-28T02:12:48.111Z,9.43
2022-11-28T02:15:44.033Z,10.15
2022-11-28T02:18:30.977Z,9.50
2022-11-28T02:21:53.714Z,9.40
2022-11-28T02:24:44.918Z,9.35
2022-11-28T02:27:38.792Z,8.43
2022-11-28T02:30:11.506Z,9.13
2022-11-28T02:33:20.595Z,9.27
2022-11-28T02:36:32.256Z,10.15
2022-11-28T02:39:30.182Z,9.23
2022-11-28T02:42:22.614Z,9.77
2022-11-28T02:45:10.759Z,9.55
2022-11-28T02:47:45.335Z,9.32
2022-11-28T02:50:37.588Z,10.32
2022-11-28T02:53:11.864Z,9.02
2022-11-28T02:55:41.158Z,9.63
2022-11-28T02:58:10.695Z,9.45
2022-11-28T03:00:41.281Z,9.40
2022-11-28T03:03:28.921Z,9.07
2022-11-28T03:06:06.855Z,9.18
2022-11-28T03:08:58.008Z,8.93
2022-11-28T03:11:46.770Z,9.77
2022-11-28T03:14:51.827Z,9.40
2022-11-28T03:17:52.179Z,10.05
2022-11-28T03:21:07.021Z,9.60
2022-11-28T03:23:51.773Z,9.68
2022-11-28T03:27:01.969Z,10.20
2022-11-28T03:30:01.801Z,9.80
2022-11-28T03:32:35.398Z,9.20
2022-11-28T03:35:18.086Z,9.52
2022-11-28T03:37:53.755Z,11.25
2022-11-28T03:40:38.620Z,12.20
2022-11-28T03:43:13.551Z,10.88
2022-11-28T03:45:55.576Z,11.20
2022-11-28T03:48:30.454Z,10.45
2022-11-28T03:51:09.708Z,11.93
2022-11-28T03:54:03.571Z,12.25
2022-11-28T03:56:59.481Z,10.90
2022-11-28T03:59:52.259Z,10.90
2022-11-28T04:02:36.686Z,11.75
2022-11-28T04:05:12.314Z,12.07
2022-11-28T04:07:56.032Z,12.18
2022-11-28T04:10:43.232Z,12.10
2022-11-28T04:13:28.903Z,10.88
2022-11-28T04:16:22.250Z,11.15
2022-11-28T04:19:22.431Z,10.35
2022-11-28T04:22:13.417Z,12.32
2022-11-28T04:24:51.334Z,11.55
2022-11-28T04:27:27.109Z,12.13
2022-11-28T04:30:00.847Z,12.38
2022-11-28T04:32:32.845Z,12.00
2022-11-28T04:35:11.428Z,12.20
2022-11-28T04:37:44.190Z,12.02
2022-11-28T04:40:12.981Z,11.02
2022-11-28T04:42:52.850Z,11.82
2022-11-28T04:45:33.884Z,12.05
2022-11-28T04:48:02.543Z,10.73
2022-11-28T04:50:40.918Z,11.80
2022-11-28T04:53:45.396Z,11.70
2022-11-28T04:56:21.625Z,12.10
2022-11-28T04:58:50.385Z,12.23
2022-11-28T05:01:30.637Z,11.63
2022-11-28T05:03:57.620Z,11.57
2022-11-28T05:06:32.054Z,11.48
2022-11-28T05:08:59.504Z,11.90
2022-11-28T05:11:27.021Z,12.02
2022-11-28T05:13:55.259Z,11.05
2022-11-28T05:16:22.732Z,11.40
2022-11-28T05:18:50.659Z,11.35
2022-11-28T05:21:17.407Z,12.60
2022-11-28T05:23:46.082Z,11.57
2022-11-28T05:26:20.685Z,12.60
2022-11-28T05:28:50.895Z,12.30
2022-11-28T05:31:21.685Z,12.63
2022-11-28T05:33:48.665Z,12.52
2022-11-28T05:36:17.212Z,12.20
2022-11-28T05:38:44.792Z,11.57
2022-11-28T05:41:24.925Z,13.15
2022-11-28T05:43:52.241Z,11.68
2022-11-28T05:46:19.897Z,12.73
2022-11-28T05:48:46.779Z,11.63
2022-11-28T05:51:13.656Z,12.85
2022-11-28T05:53:40.448Z,12.80
2022-11-28T05:56:14.721Z,13.00
2022-11-28T05:58:41.962Z,11.60
2022-11-28T06:01:15.816Z,11.85
2022-11-28T06:03:43.394Z,12.63
2022-11-28T06:06:17.632Z,11.88
2022-11-28T06:08:46.372Z,11.23
2022-11-28T06:11:14.926Z,11.15
2022-11-28T06:13:43.628Z,12.68
2022-11-28T06:16:17.496Z,13.10
2022-11-28T06:21:13.864Z,11.60
2022-11-28T06:23:40.944Z,11.55
2022-11-28T06:26:15.028Z,12.45
2022-11-28T06:28:41.801Z,12.02
2022-11-28T06:31:14.614Z,12.90
2022-11-28T06:33:42.188Z,13.07
2022-11-28T06:36:11.126Z,13.23
2022-11-28T06:38:38.719Z,13.98
2022-11-28T06:41:09.637Z,15.32
2022-11-28T06:43:37.003Z,13.88
2022-11-28T06:46:04.003Z,14.57
2022-11-28T06:48:31.010Z,12.55
2022-11-28T06:51:06.845Z,13.35
2022-11-28T06:53:35.536Z,14.05
2022-11-28T06:56:15.527Z,15.48
2022-11-28T06:58:43.404Z,14.95
2022-11-28T07:01:20.231Z,13.90
2022-11-28T07:03:47.676Z,14.10
2022-11-28T07:06:17.033Z,13.80
2022-11-28T07:08:43.999Z,14.45
2022-11-28T07:11:24.619Z,14.25
2022-11-28T07:13:52.865Z,14.25
2022-11-28T07:16:23.878Z,13.75
2022-11-28T07:18:51.704Z,14.15
2022-11-28T07:21:19.878Z,13.30
2022-11-28T07:23:47.641Z,13.25
2022-11-28T07:26:18.565Z,12.40
2022-11-28T07:28:47.681Z,13.15
2022-11-28T07:31:31.563Z,16.55
2022-11-28T07:34:03.486Z,13.95
2022-11-28T07:36:30.627Z,14.98
2022-11-28T07:39:00.658Z,15.30
2022-11-28T07:41:28.975Z,15.10
2022-11-28T07:43:59.245Z,15.30
2022-11-28T07:46:27.797Z,15.20
2022-11-28T07:48:55.063Z,17.40
2022-11-28T07:51:29.465Z,16.15
2022-11-28T07:53:56.692Z,16.33
2022-11-28T07:56:39.493Z,17.60
2022-11-28T07:59:14.921Z,19.63
2022-11-28T08:01:41.856Z,19.55
2022-11-28T08:04:10.285Z,16.80
2022-11-28T08:06:41.223Z,17.05
2022-11-28T08:09:09.063Z,16.58
2022-11-28T08:11:36.267Z,16.92
2022-11-28T08:14:04.181Z,16.05
2022-11-28T08:16:32.277Z,15.23
2022-11-28T08:19:02.203Z,16.58
2022-11-28T08:21:32.882Z,14.02
2022-11-28T08:24:02.248Z,15.40
2022-11-28T08:26:32.047Z,14.52
2022-11-28T08:29:01.021Z,14.32
2022-11-28T08:31:38.867Z,16.05
2022-11-28T08:34:10.694Z,15.88
2022-11-28T08:36:37.773Z,15.82
2022-11-28T08:41:59.079Z,15.80
2022-11-28T08:44:31.906Z,13.95
2022-11-28T08:46:58.839Z,15.32
2022-11-28T08:49:25.642Z,15.98
2022-11-28T08:51:52.365Z,15.35
2022-11-28T08:54:19.117Z,15.10
2022-11-28T08:56:48.018Z,16.45
2022-11-28T08:59:14.796Z,15.50
2022-11-28T09:01:41.620Z,15.80
2022-11-28T09:04:08.460Z,17.00
2022-11-28T09:06:36.637Z,15.50
2022-11-28T09:09:03.451Z,15.48
2022-11-28T09:11:30.177Z,15.63
2022-11-28T09:13:56.945Z,15.30
2022-11-28T09:16:23.763Z,15.68
2022-11-28T09:18:51.611Z,15.27
2022-11-28T09:21:18.413Z,14.15
2022-11-28T09:23:45.719Z,13.75
2022-11-28T09:26:19.533Z,14.38
2022-11-28T09:28:47.439Z,14.13
2022-11-28T09:31:17.048Z,15.45
2022-11-28T09:33:45.204Z,14.73
2022-11-28T09:36:16.500Z,15.20
2022-11-28T09:38:43.547Z,13.88
2022-11-28T09:41:28.571Z,15.60
2022-11-28T09:44:03.087Z,13.88
2022-11-28T09:46:35.901Z,14.48
2022-11-28T09:49:17.782Z,15.68
2022-11-28T09:52:02.723Z,15.50
2022-11-28T09:54:59.578Z,15.43
2022-11-28T09:57:45.604Z,14.30
2022-11-28T10:00:22.770Z,14.02
2022-11-28T10:03:10.383Z,14.35
2022-11-28T10:06:23.618Z,14.63
2022-11-28T10:09:04.511Z,14.80
2022-11-28T10:11:51.220Z,14.30
2022-11-28T10:14:46.913Z,14.95
2022-11-28T10:17:37.150Z,14.48
2022-11-28T10:20:12.613Z,15.02
2022-11-28T10:23:04.886Z,15.57
2022-11-28T10:25:39.410Z,15.55
2022-11-28T10:28:14.462Z,16.38
2022-11-28T10:30:47.669Z,15.27
2022-11-28T10:33:31.698Z,15.00
2022-11-28T10:36:02.496Z,16.10
2022-11-28T10:38:34.098Z,15.40
2022-11-28T10:41:18.615Z,16.08
2022-11-28T10:44:00.445Z,16.25
2022-11-28T10:46:48.538Z,14.77
2022-11-28T10:49:53.197Z,14.32
2022-11-28T10:52:44.217Z,14.80
2022-11-28T10:55:58.441Z,15.20
2022-11-28T10:58:46.884Z,15.45
2022-11-28T11:01:14.202Z,15.98
2022-11-28T11:03:41.609Z,17.17
2022-11-28T11:06:09.541Z,16.45
2022-11-28T11:08:40.477Z,16.92
2022-11-28T11:11:30.633Z,17.25
2022-11-28T11:14:05.833Z,16.25
2022-11-28T11:16:55.800Z,16.15
2022-11-28T11:19:40.992Z,15.23
2022-11-28T11:22:29.079Z,15.70
2022-11-28T11:25:17.129Z,15.05
2022-11-28T11:27:54.460Z,16.13
2022-11-28T11:30:45.910Z,15.63
2022-11-28T11:33:17.450Z,16.75
2022-11-28T11:35:49.521Z,15.48
2022-11-28T11:38:22.415Z,15.77
2022-11-28T11:40:51.070Z,14.80
2022-11-28T11:43:23.547Z,15.27
2022-11-28T11:46:15.947Z,14.50
2022-11-28T11:48:54.069Z,14.20
2022-11-28T11:51:35.099Z,14.10
2022-11-28T11:54:14.051Z,14.43
2022-11-28T11:56:47.102Z,13.65
2022-11-28T11:59:20.896Z,13.40
2022-11-28T12:01:55.691Z,12.52
2022-11-28T12:04:54.955Z,14.05
2022-11-28T12:07:40.768Z,12.55
2022-11-28T12:10:16.407Z,12.75
2022-11-28T12:12:43.587Z,12.73
2022-11-28T12:15:27.684Z,12.57
2022-11-28T12:18:35.020Z,13.07
2022-11-28T12:21:41.146Z,13.73
2022-11-28T12:24:17.697Z,12.98
2022-11-28T12:27:07.446Z,13.45
2022-11-28T12:30:05.682Z,12.93
2022-11-28T12:33:25.160Z,14.00
2022-11-28T12:36:26.337Z,12.90
2022-11-28T12:39:17.817Z,13.23
2022-11-28T12:42:16.960Z,13.95
2022-11-28T12:45:03.041Z,13.20
2022-11-28T12:48:13.324Z,13.80
2022-11-28T12:50:52.517Z,13.15
2022-11-28T12:53:47.684Z,12.75
2022-11-28T12:56:42.351Z,12.40
2022-11-28T12:59:34.925Z,13.27
2022-11-28T13:03:03.221Z,13.10
2022-11-28T13:05:55.267Z,15.98
2022-11-28T13:09:02.762Z,15.75
2022-11-28T13:11:56.313Z,16.50
2022-11-28T13:15:31.665Z,16.10
2022-11-28T13:18:23.418Z,14.32
2022-11-28T13:21:08.198Z,16.65
2022-11-28T13:23:48.668Z,16.67
2022-11-28T13:27:00.236Z,15.73
2022-11-28T13:30:08.826Z,16.33
2022-11-28T13:32:54.101Z,16.23
2022-11-28T13:35:21.439Z,14.55
2022-11-28T13:38:50.461Z,15.30
2022-11-28T13:41:53.273Z,14.90
2022-11-28T13:44:32.438Z,14.15
2022-11-28T13:47:22.697Z,14.85
2022-11-28T13:49:49.823Z,15.80
2022-11-28T13:52:19.324Z,15.95
2022-11-28T13:54:56.660Z,14.95
2022-11-28T13:57:38.311Z,16.77
2022-11-28T14:00:24.535Z,15.80
2022-11-28T14:02:59.989Z,16.75
2022-11-28T14:05:38.422Z,19.05
2022-11-28T14:08:07.269Z,19.33
2022-11-28T14:11:05.697Z,19.75
2022-11-28T14:13:56.961Z,19.40
2022-11-28T14:17:05.198Z,19.58
2022-11-28T14:20:01.257Z,20.35
2022-11-28T14:23:12.152Z,21.15
2022-11-28T14:25:49.515Z,19.10
2022-11-28T14:28:37.843Z,19.67
2022-11-28T14:31:32.725Z,20.80
2022-11-28T14:34:03.536Z,19.10
2022-11-28T14:36:42.174Z,20.13
2022-11-28T14:39:17.106Z,21.25
2022-11-28T14:42:02.492Z,20.45
2022-11-28T14:44:54.761Z,21.90
2022-11-28T14:47:21.421Z,22.27
2022-11-28T14:49:49.116Z,22.02
2022-11-28T14:52:41.028Z,20.58
2022-11-28T14:55:08.382Z,23.25
2022-11-28T14:57:39.822Z,22.60
2022-11-28T15:00:48.313Z,22.83
2022-11-28T15:03:36.757Z,21.83
2022-11-28T15:06:17.940Z,20.17
2022-11-28T15:08:58.364Z,21.67
2022-11-28T15:12:23.468Z,21.90
2022-11-28T15:14:56.585Z,20.65
2022-11-28T15:17:30.712Z,21.03
2022-11-28T15:20:03.748Z,20.42
2022-11-28T15:22:38.389Z,22.80
2022-11-28T15:25:20.812Z,21.50
2022-11-28T15:27:47.876Z,23.40
2022-11-28T15:30:42.180Z,23.10
2022-11-28T15:33:12.644Z,21.88
2022-11-28T15:35:41.377Z,21.38
2022-11-28T15:38:14.902Z,20.55
2022-11-28T15:40:51.389Z,20.02
2022-11-28T15:43:19.058Z,20.35
2022-11-28T15:46:00.938Z,21.33
2022-11-28T15:48:47.203Z,21.23
2022-11-28T15:51:30.307Z,20.50
2022-11-28T15:53:57.211Z,19.83
2022-11-28T15:56:24.044Z,20.23
2022-11-28T15:58:51.731Z,20.52
2022-11-28T16:01:27.955Z,20.92
2022-11-28T16:04:13.706Z,21.48
2022-11-28T16:06:44.926Z,20.92
2022-11-28T16:09:27.779Z,21.88
2022-11-28T16:11:55.562Z,22.08
2022-11-28T16:14:38.466Z,20.15
2022-11-28T16:17:18.649Z,22.77
2022-11-28T16:19:46.337Z,21.23
2022-11-28T16:22:20.607Z,20.60
2022-11-28T16:24:51.792Z,21.20
2022-11-28T16:27:48.949Z,19.90
2022-11-28T16:30:27.980Z,21.30
2022-11-28T16:32:56.474Z,20.35
2022-11-28T16:35:40.438Z,21.65
2022-11-28T16:38:24.699Z,21.80
2022-11-28T16:43:37.115Z,20.75
2022-11-28T16:46:08.578Z,20.67
2022-11-28T16:48:53.090Z,22.45
2022-11-28T16:51:25.750Z,23.70
2022-11-28T16:53:55.630Z,22.38
2022-11-28T16:56:31.559Z,22.02
2022-11-28T16:59:02.803Z,20.33
2022-11-28T17:01:30.817Z,22.05
2022-11-28T17:03:57.881Z,22.38
2022-11-28T17:06:39.222Z,22.45
2022-11-28T17:09:12.884Z,22.35
2022-11-28T17:11:47.406Z,22.60
2022-11-28T17:14:14.918Z,21.23
2022-11-28T17:16:44.082Z,22.52
2022-11-28T17:19:11.554Z,23.52
2022-11-28T17:21:50.707Z,22.63
2022-11-28T17:24:22.187Z,22.58
2022-11-28T17:26:50.814Z,22.35
2022-11-28T17:29:17.978Z,22.23
2022-11-28T17:31:49.499Z,21.73
2022-11-28T17:34:23.077Z,21.42
2022-11-28T17:36:50.592Z,22.48
2022-11-28T17:39:19.148Z,22.92
2022-11-28T17:41:46.957Z,23.17
2022-11-28T17:44:19.835Z,22.45
2022-11-28T17:46:47.557Z,23.67
2022-11-28T17:49:14.805Z,21.80
2022-11-28T17:51:41.883Z,21.77
2022-11-28T17:54:11.126Z,22.25
2022-11-28T17:56:37.879Z,21.88
2022-11-28T17:59:04.741Z,24.92
2022-11-28T18:01:31.556Z,24.95
2022-11-28T18:03:58.618Z,25.10
2022-11-28T18:06:25.731Z,25.90
2022-11-28T18:08:52.658Z,26.48
2022-11-28T18:11:20.317Z,24.90
2022-11-28T18:13:47.543Z,25.23
2022-11-28T18:16:18.372Z,25.70
2022-11-28T18:18:45.716Z,24.85
2022-11-28T18:21:13.129Z,25.05
2022-11-28T18:23:46.243Z,25.83
2022-11-28T18:26:19.960Z,25.97
2022-11-28T18:28:46.968Z,24.13
2022-11-28T18:31:27.844Z,25.33
2022-11-28T18:34:01.426Z,27.27
2022-11-28T18:36:31.881Z,25.48
2022-11-28T18:39:05.031Z,24.67
2022-11-28T18:41:32.510Z,28.83
2022-11-28T18:44:03.751Z,26.15
2022-11-28T18:46:33.363Z,26.67
2022-11-28T18:49:00.115Z,27.50
2022-11-28T18:51:31.000Z,25.02
2022-11-28T18:53:58.380Z,25.75
2022-11-28T18:56:26.545Z,26.13
2022-11-28T18:58:54.719Z,25.42
2022-11-28T19:01:31.013Z,26.02
2022-11-28T19:04:02.182Z,26.83
2022-11-28T19:06:29.701Z,27.70
2022-11-28T19:09:00.266Z,27.80
2022-11-28T19:11:29.403Z,26.23
2022-11-28T19:13:57.350Z,26.40
2022-11-28T19:16:27.764Z,25.75
2022-11-28T19:18:55.249Z,25.65
2022-11-28T19:21:26.614Z,25.45
2022-11-28T19:23:56.344Z,23.90
2022-11-28T19:26:26.432Z,26.88
2022-11-28T19:28:53.662Z,25.27
2022-11-28T19:31:27.234Z,25.50
2022-11-28T19:34:17.406Z,26.00
2022-11-28T19:36:47.942Z,27.55
2022-11-28T19:39:24.716Z,26.17
2022-11-28T19:41:53.915Z,24.63
2022-11-28T19:44:23.883Z,25.70
2022-11-28T19:46:51.256Z,25.08
2022-11-28T19:49:21.648Z,27.15
2022-11-28T19:51:49.552Z,25.73
2022-11-28T19:54:21.206Z,25.85
2022-11-28T19:56:48.892Z,26.90
2022-11-28T19:59:15.914Z,25.00
2022-11-28T20:01:43.326Z,24.45
2022-11-28T20:04:10.274Z,25.38
2022-11-28T20:06:37.076Z,25.42
2022-11-28T20:09:10.982Z,25.58
2022-11-28T20:11:38.082Z,26.73
2022-11-28T20:14:16.550Z,25.27
2022-11-28T20:16:45.139Z,26.63
2022-11-28T20:19:14.756Z,26.13
2022-11-28T20:21:41.680Z,24.60
2022-11-28T20:24:08.955Z,26.00
2022-11-28T20:26:41.624Z,26.88
2022-11-28T20:29:11.830Z,24.50
2022-11-28T20:31:45.720Z,25.08
2022-11-28T20:34:17.907Z,26.00
2022-11-28T20:36:44.938Z,25.35
2022-11-28T20:39:12.773Z,26.20
2022-11-28T20:41:39.703Z,24.40
2022-11-28T20:44:06.713Z,23.77
2022-11-28T20:46:35.544Z,25.15
2022-11-28T20:49:05.380Z,23.98
2022-11-28T20:51:34.812Z,29.17
2022-11-28T20:54:04.726Z,25.80
2022-11-28T20:56:51.698Z,25.40
2022-11-28T20:59:22.201Z,25.92
2022-11-28T21:01:49.044Z,25.67
2022-11-28T21:04:18.265Z,25.30
2022-11-28T21:06:47.460Z,24.65
2022-11-28T21:09:15.738Z,25.48
2022-11-28T21:11:59.377Z,25.10
2022-11-28T21:14:30.196Z,25.10
2022-11-28T21:16:58.127Z,25.10
2022-11-28T21:19:25.423Z,24.42
2022-11-28T21:21:52.325Z,24.02
2022-11-28T21:24:19.128Z,23.95
2022-11-28T21:26:51.296Z,23.58
2022-11-28T21:29:20.964Z,24.85
2022-11-28T21:31:47.784Z,23.95
2022-11-28T21:34:16.942Z,24.20
2022-11-28T21:36:44.041Z,24.13
2022-11-28T21:39:15.330Z,24.58
2022-11-28T21:41:42.157Z,24.98
2022-11-28T21:44:09.440Z,22.60
2022-11-28T21:46:36.402Z,23.52
2022-11-28T21:49:03.172Z,23.60
2022-11-28T21:51:29.949Z,24.42
2022-11-28T21:53:59.772Z,22.90
2022-11-28T21:56:26.769Z,23.02
2022-11-28T21:58:54.007Z,22.73
2022-11-28T22:01:21.452Z,23.25
2022-11-28T22:03:49.181Z,22.52
2022-11-28T22:06:22.816Z,22.45
2022-11-28T22:08:51.457Z,22.40
2022-11-28T22:11:20.160Z,21.67
2022-11-28T22:13:48.175Z,20.92
2022-11-28T22:16:28.407Z,22.25
2022-11-28T22:18:59.776Z,22.73
2022-11-28T22:24:14.039Z,22.60
2022-11-28T22:26:40.836Z,21.27
2022-11-28T22:29:07.656Z,23.85
2022-11-28T22:31:34.553Z,24.50
2022-11-28T22:34:01.338Z,22.25
2022-11-28T22:36:28.090Z,23.77
2022-11-28T22:38:57.314Z,23.90
2022-11-28T22:41:29.416Z,22.90
2022-11-28T22:44:02.057Z,21.33
2022-11-28T22:46:30.272Z,21.58
2022-11-28T22:48:59.804Z,21.67
2022-11-28T22:51:26.985Z,22.38
2022-11-28T22:54:01.460Z,22.05
2022-11-28T22:56:30.964Z,22.23
2022-11-28T22:58:57.776Z,21.45
2022-11-28T23:01:30.633Z,21.13
2022-11-28T23:03:57.587Z,20.85
2022-11-28T23:06:31.726Z,19.98
2022-11-28T23:09:00.603Z,21.30
2022-11-28T23:11:30.438Z,20.85
2022-11-28T23:13:57.257Z,21.83
2022-11-28T23:16:31.364Z,21.45
2022-11-28T23:19:02.303Z,21.15
2022-11-28T23:21:32.684Z,22.23
2022-11-28T23:23:59.451Z,20.83
2022-11-28T23:26:29.405Z,21.15
2022-11-28T23:29:02.528Z,20.52
2022-11-28T23:31:32.809Z,20.80
2022-11-28T23:34:01.042Z,21.60
2022-11-28T23:36:36.969Z,20.58
2022-11-28T23:39:12.508Z,21.30
2022-11-28T23:41:39.763Z,22.00
2022-11-28T23:44:06.687Z,22.08
2022-11-28T23:46:34.479Z,20.33
2022-11-28T23:49:01.195Z,19.88
2022-11-28T23:51:27.948Z,20.50
2022-11-28T23:53:55.088Z,20.58
2022-11-28T23:56:28.525Z,19.23
2022-11-28T23:58:57.086Z,18.63
